createdAt,value
2023-11-28T00:00:32.974Z,100.00
2023-11-28T00:02:59.707Z,100.00
2023-11-28T00:05:26.684Z,100.00
2023-11-28T00:07:53.336Z,100.00
2023-11-28T00:10:19.934Z,100.00
2023-11-28T00:12:46.463Z,100.00
2023-11-28T00:15:13.094Z,100.00
2023-11-28T00:17:39.915Z,100.00
2023-11-28T00:20:07.424Z,100.00
2023-11-28T00:22:34.166Z,100.00
2023-11-28T00:25:00.999Z,100.00
2023-11-28T00:27:27.629Z,100.00
2023-11-28T00:29:54.196Z,100.00
2023-11-28T00:32:20.748Z,100.00
2023-11-28T00:34:49.669Z,100.00
2023-11-28T00:37:16.489Z,100.00
2023-11-28T00:39:43.318Z,100.00
2023-11-28T00:42:10.154Z,100.00
2023-11-28T00:44:36.687Z,100.00
2023-11-28T00:47:03.376Z,100.00
2023-11-28T00:49:30.016Z,100.00
2023-11-28T00:51:56.574Z,100.00
2023-11-28T00:54:23.077Z,100.00
2023-11-28T00:56:51.242Z,100.00
2023-11-28T00:59:17.803Z,100.00
2023-11-28T01:01:45.029Z,100.00
2023-11-28T01:04:11.744Z,100.00
2023-11-28T01:06:38.322Z,100.00
2023-11-28T01:09:06.064Z,100.00
2023-11-28T01:11:32.482Z,100.00
2023-11-28T01:13:59.016Z,100.00
2023-11-28T01:16:25.965Z,100.00
2023-11-28T01:18:52.626Z,100.00
2023-11-28T01:21:19.034Z,100.00
2023-11-28T01:23:45.645Z,100.00
2023-11-28T01:26:12.126Z,100.00
2023-11-28T01:28:38.681Z,100.00
2023-11-28T01:31:06.566Z,100.00
2023-11-28T01:33:33.569Z,100.00
2023-11-28T01:36:00.186Z,100.00
2023-11-28T01:38:26.780Z,100.00
2023-11-28T01:40:53.221Z,100.00
2023-11-28T01:43:29.876Z,100.00
2023-11-28T01:45:58.106Z,100.00
2023-11-28T01:48:24.928Z,100.00
2023-11-28T01:50:52.071Z,100.00
2023-11-28T01:53:19.173Z,100.00
2023-11-28T01:55:46.069Z,100.00
2023-11-28T01:58:13.276Z,100.00
2023-11-28T02:00:40.011Z,100.00
2023-11-28T02:03:10.275Z,100.00
2023-11-28T02:05:36.970Z,100.00
2023-11-28T02:08:05.104Z,100.00
2023-11-28T02:10:35.078Z,100.00
2023-11-28T02:13:01.626Z,100.00
2023-11-28T02:15:44.162Z,100.00
2023-11-28T02:18:11.618Z,100.00
2023-11-28T02:20:41.899Z,100.00
2023-11-28T02:23:09.608Z,100.00
2023-11-28T02:25:41.511Z,100.00
2023-11-28T02:28:08.037Z,100.00
2023-11-28T02:46:50.333Z,100.00
2023-11-28T02:49:16.960Z,100.00
2023-11-28T02:51:43.463Z,100.00
2023-11-28T02:54:09.910Z,100.00
2023-11-28T02:56:36.481Z,100.00
2023-11-28T02:59:03.000Z,100.00
2023-11-28T03:01:29.689Z,100.00
2023-11-28T03:03:56.978Z,100.00
2023-11-28T03:06:23.515Z,100.00
2023-11-28T03:08:49.951Z,100.00
2023-11-28T03:11:16.448Z,100.00
2023-11-28T03:13:42.935Z,100.00
2023-11-28T03:16:10.054Z,100.00
2023-11-28T03:18:36.576Z,100.00
2023-11-28T03:21:03.023Z,100.00
2023-11-28T03:23:29.532Z,100.00
2023-11-28T03:25:57.271Z,100.00
2023-11-28T03:28:23.860Z,100.00
2023-11-28T03:30:50.464Z,100.00
2023-11-28T03:33:17.113Z,100.00
2023-11-28T03:35:44.049Z,100.00
2023-11-28T03:38:10.892Z,99.39
2023-11-28T03:40:37.558Z,98.10
2023-11-28T03:43:04.211Z,96.06
2023-11-28T03:45:30.730Z,95.52
2023-11-28T03:47:57.182Z,96.02
2023-11-28T03:50:23.731Z,96.28
2023-11-28T03:52:50.376Z,96.35
2023-11-28T03:55:16.903Z,97.96
2023-11-28T03:57:43.299Z,95.94
2023-11-28T04:00:11.520Z,96.54
2023-11-28T04:02:38.290Z,96.02
2023-11-28T04:05:07.733Z,94.89
2023-11-28T04:07:34.331Z,95.10
2023-11-28T04:10:00.892Z,94.15
2023-11-28T04:12:27.792Z,94.52
2023-11-28T04:14:54.294Z,93.16
2023-11-28T04:17:21.093Z,90.82
2023-11-28T04:19:47.800Z,93.06
2023-11-28T04:22:14.871Z,93.02
2023-11-28T04:24:41.596Z,91.36
2023-11-28T04:27:08.116Z,90.95
2023-11-28T04:29:34.636Z,91.60
2023-11-28T04:32:01.390Z,92.42
2023-11-28T04:34:28.143Z,91.51
2023-11-28T04:36:55.088Z,91.44
2023-11-28T04:39:21.753Z,92.56
2023-11-28T04:41:54.130Z,91.76
2023-11-28T04:44:20.705Z,89.39
2023-11-28T04:46:47.284Z,89.54
2023-11-28T04:49:15.221Z,90.12
2023-11-28T04:51:41.793Z,89.53
2023-11-28T04:54:08.616Z,92.28
2023-11-28T04:56:35.401Z,91.61
2023-11-28T04:59:02.039Z,89.84
2023-11-28T05:01:28.588Z,89.92
2023-11-28T05:03:55.193Z,88.63
2023-11-28T05:06:22.131Z,89.76
2023-11-28T05:08:48.980Z,90.65
2023-11-28T05:11:15.574Z,90.46
2023-11-28T05:13:48.272Z,89.62
2023-11-28T05:16:15.027Z,88.57
2023-11-28T05:18:41.780Z,88.53
2023-11-28T05:21:11.449Z,87.68
2023-11-28T05:23:39.690Z,89.01
2023-11-28T05:26:13.240Z,89.54
2023-11-28T05:28:39.935Z,89.23
2023-11-28T05:31:06.671Z,90.41
2023-11-28T05:33:33.193Z,89.93
2023-11-28T05:35:59.647Z,91.34
2023-11-28T05:38:26.121Z,90.83
2023-11-28T05:40:52.600Z,89.80
2023-11-28T05:43:19.401Z,91.95
2023-11-28T05:45:45.891Z,92.21
2023-11-28T05:48:15.425Z,91.07
2023-11-28T05:50:41.964Z,90.41
2023-11-28T05:53:08.424Z,91.03
2023-11-28T05:55:34.974Z,91.69
2023-11-28T05:58:01.553Z,91.63
2023-11-28T06:00:28.618Z,89.46
2023-11-28T06:02:55.332Z,88.21
2023-11-28T06:05:22.063Z,88.64
2023-11-28T06:07:49.014Z,88.54
2023-11-28T06:10:16.553Z,88.61
2023-11-28T06:12:43.128Z,88.75
2023-11-28T06:15:09.656Z,89.11
2023-11-28T06:21:25.084Z,88.92
2023-11-28T06:23:51.739Z,89.89
2023-11-28T06:26:18.264Z,91.41
2023-11-28T06:28:44.734Z,90.59
2023-11-28T06:31:11.373Z,91.44
2023-11-28T06:33:37.972Z,90.95
2023-11-28T06:36:05.543Z,91.13
2023-11-28T06:38:35.908Z,92.56
2023-11-28T06:47:02.029Z,90.36
2023-11-28T06:47:55.687Z,91.74
2023-11-28T07:47:09.256Z,95.39
2023-11-28T07:49:36.124Z,94.64
2023-11-28T08:13:54.854Z,97.12
2023-11-28T08:16:24.704Z,97.60
2023-11-28T08:18:51.490Z,97.72
2023-11-28T08:21:19.573Z,96.65
2023-11-28T08:23:46.728Z,96.84
2023-11-28T08:26:13.349Z,96.99
2023-11-28T08:28:40.141Z,96.40
2023-11-28T08:31:10.471Z,94.28
2023-11-28T08:33:37.169Z,94.42
2023-11-28T08:36:04.263Z,94.31
2023-11-28T08:38:31.122Z,94.47
2023-11-28T08:41:03.441Z,92.92
2023-11-28T08:48:42.773Z,93.80
2023-11-28T08:55:13.144Z,92.31
2023-11-28T08:58:00.429Z,93.11
2023-11-28T09:00:46.026Z,92.97
2023-11-28T09:03:13.198Z,92.83
2023-11-28T09:05:48.829Z,91.81
2023-11-28T09:08:27.220Z,93.07
2023-11-28T09:18:22.022Z,93.27
2023-11-28T09:24:23.265Z,92.61
2023-11-28T09:26:59.929Z,92.19
2023-11-28T09:29:29.335Z,92.65
2023-11-28T09:35:02.584Z,91.45
2023-11-28T09:38:45.956Z,91.58
2023-11-28T09:41:12.780Z,91.88
2023-11-28T09:46:30.614Z,91.78
2023-11-28T09:46:54.968Z,92.46
2023-11-28T09:49:48.179Z,92.14
2023-11-28T09:52:35.509Z,91.74
2023-11-28T09:55:02.742Z,92.23
2023-11-28T09:57:35.581Z,91.81
2023-11-28T10:00:12.765Z,92.32
2023-11-28T10:02:43.215Z,92.67
2023-11-28T10:05:10.041Z,89.66
2023-11-28T10:07:37.110Z,88.17
2023-11-28T10:10:38.407Z,88.14
2023-11-28T10:13:10.733Z,90.38
2023-11-28T10:15:41.328Z,88.86
2023-11-28T10:22:09.546Z,90.12
2023-11-28T10:24:36.568Z,88.11
2023-11-28T10:30:40.238Z,89.18
2023-11-28T10:33:17.211Z,89.26
2023-11-28T10:35:46.208Z,88.32
2023-11-28T10:38:24.634Z,88.75
2023-11-28T10:40:59.712Z,90.42
2023-11-28T10:43:42.674Z,90.48
2023-11-28T10:46:22.173Z,88.83
2023-11-28T10:52:07.285Z,88.29
2023-11-28T10:54:40.003Z,87.88
2023-11-28T11:03:59.927Z,89.33
2023-11-28T11:06:27.669Z,89.05
2023-11-28T11:09:01.764Z,87.33
2023-11-28T11:11:36.053Z,87.32
2023-11-28T11:14:38.367Z,86.58
2023-11-28T11:17:27.316Z,86.09
2023-11-28T11:23:39.379Z,88.62
2023-11-28T11:26:06.911Z,87.00
2023-11-28T11:29:17.371Z,88.30
2023-11-28T11:32:33.313Z,85.98
2023-11-28T11:35:17.398Z,87.97
2023-11-28T11:38:17.538Z,88.09
2023-11-28T11:40:48.975Z,86.92
2023-11-28T11:43:31.416Z,87.58
2023-11-28T11:46:57.983Z,86.72
2023-11-28T11:49:25.204Z,88.35
2023-11-28T11:51:58.025Z,89.93
2023-11-28T11:54:29.498Z,86.77
2023-11-28T11:56:56.567Z,87.31
2023-11-28T11:59:30.731Z,86.00
2023-11-28T12:02:16.183Z,86.13
2023-11-28T12:05:07.514Z,87.71
2023-11-28T12:07:37.738Z,87.36
2023-11-28T12:10:39.645Z,85.63
2023-11-28T12:13:12.629Z,86.10
2023-11-28T12:15:42.799Z,85.12
2023-11-28T12:18:29.390Z,85.43
2023-11-28T12:20:59.859Z,85.06
2023-11-28T12:26:45.868Z,84.63
2023-11-28T12:29:47.088Z,85.16
2023-11-28T12:32:14.370Z,85.08
2023-11-28T12:34:57.180Z,84.31
2023-11-28T12:37:23.830Z,83.91
2023-11-28T12:39:54.947Z,84.28
2023-11-28T12:42:21.666Z,85.68
2023-11-28T12:44:49.807Z,83.83
2023-11-28T12:47:16.876Z,81.81
2023-11-28T12:49:43.933Z,82.37
2023-11-28T12:52:11.709Z,81.17
2023-11-28T12:54:52.799Z,80.49
2023-11-28T12:58:15.353Z,82.65
2023-11-28T13:00:42.452Z,82.92
2023-11-28T13:03:09.155Z,83.26
2023-11-28T13:05:42.303Z,83.58
2023-11-28T13:08:17.706Z,81.23
2023-11-28T13:10:45.252Z,81.07
2023-11-28T13:13:38.327Z,80.48
2023-11-28T13:16:05.660Z,79.52
2023-11-28T13:18:33.041Z,80.85
2023-11-28T13:21:52.314Z,78.51
2023-11-28T13:24:28.422Z,78.78
2023-11-28T13:26:55.402Z,79.09
2023-11-28T13:29:30.720Z,79.49
2023-11-28T13:31:59.978Z,79.83
2023-11-28T13:34:26.719Z,78.42
2023-11-28T13:36:53.504Z,79.51
2023-11-28T13:39:24.535Z,77.63
2023-11-28T13:41:57.504Z,79.23
2023-11-28T13:47:20.453Z,80.91
2023-11-28T13:47:20.821Z,79.59
2023-11-28T13:49:47.460Z,80.95
2023-11-28T13:52:14.350Z,79.73
2023-11-28T13:54:41.029Z,79.35
2023-11-28T13:57:09.005Z,80.34
2023-11-28T14:00:48.674Z,80.16
2023-11-28T14:03:46.621Z,81.67
2023-11-28T14:09:50.034Z,84.37
2023-11-28T14:12:36.811Z,85.56
2023-11-28T14:15:04.274Z,84.00
2023-11-28T14:17:31.227Z,84.46
2023-11-28T14:20:07.727Z,84.07
2023-11-28T14:26:14.935Z,85.36
2023-11-28T14:29:08.163Z,85.88
2023-11-28T14:32:07.393Z,85.46
2023-11-28T14:34:53.901Z,84.07
2023-11-28T14:37:21.014Z,85.34
2023-11-28T14:40:00.534Z,86.82
2023-11-28T14:42:28.054Z,85.37
2023-11-28T14:45:04.137Z,86.29
2023-11-28T14:54:55.521Z,87.42
2023-11-28T14:57:22.790Z,88.29
2023-11-28T14:59:52.440Z,88.17
2023-11-28T15:02:30.926Z,88.68
2023-11-28T15:05:41.597Z,88.48
2023-11-28T15:08:10.943Z,88.33
2023-11-28T15:10:40.034Z,88.49
2023-11-28T15:13:40.952Z,88.79
2023-11-28T15:16:08.879Z,89.68
2023-11-28T15:18:35.635Z,89.05
2023-11-28T15:21:10.818Z,88.83
2023-11-28T15:23:37.730Z,89.40
2023-11-28T15:26:05.116Z,89.00
2023-11-28T15:28:31.839Z,89.17
2023-11-28T15:31:18.858Z,89.71
2023-11-28T15:33:45.647Z,90.44
2023-11-28T15:36:13.946Z,90.44
2023-11-28T15:38:41.834Z,90.09
2023-11-28T15:41:08.806Z,90.26
2023-11-28T15:43:35.562Z,89.91
2023-11-28T15:46:02.144Z,90.18
2023-11-28T15:48:28.605Z,89.38
2023-11-28T15:50:55.445Z,89.97
2023-11-28T15:53:22.175Z,90.41
2023-11-28T15:55:48.854Z,90.44
2023-11-28T15:58:21.059Z,90.65
2023-11-28T16:00:49.782Z,91.29
2023-11-28T16:03:18.856Z,90.77
2023-11-28T16:06:01.377Z,90.84
2023-11-28T16:08:36.494Z,91.31
2023-11-28T16:11:28.151Z,91.36
2023-11-28T16:13:55.957Z,90.92
2023-11-28T16:19:46.654Z,90.72
2023-11-28T16:22:38.922Z,91.50
2023-11-28T16:25:10.553Z,91.59
2023-11-28T16:27:40.202Z,91.80
2023-11-28T16:30:17.435Z,91.61
2023-11-28T16:32:50.184Z,92.00
2023-11-28T16:36:08.802Z,91.65
2023-11-28T16:38:42.993Z,91.85
2023-11-28T16:41:13.194Z,92.18
2023-11-28T16:43:41.598Z,92.00
2023-11-28T16:46:09.866Z,92.67
2023-11-28T16:48:41.068Z,92.18
2023-11-28T16:51:15.976Z,91.58
2023-11-28T16:54:09.507Z,92.49
2023-11-28T16:56:38.561Z,92.39
2023-11-28T17:06:44.592Z,93.32
2023-11-28T17:09:11.920Z,93.08
2023-11-28T17:11:40.625Z,92.43
2023-11-28T17:14:07.552Z,92.19
2023-11-28T17:16:41.968Z,92.51
2023-11-28T17:19:18.808Z,93.85
2023-11-28T17:21:48.456Z,92.50
2023-11-28T17:24:20.633Z,92.82
2023-11-28T17:26:55.144Z,91.83
2023-11-28T17:29:41.184Z,93.18
2023-11-28T17:32:20.366Z,93.55
2023-11-28T17:34:51.587Z,93.24
2023-11-28T17:37:38.076Z,92.79
2023-11-28T17:40:11.569Z,92.64
2023-11-28T17:43:10.739Z,92.65
2023-11-28T17:45:54.170Z,92.28
2023-11-28T17:48:24.412Z,92.46
2023-11-28T17:51:11.708Z,92.87
2023-11-28T17:53:57.975Z,92.63
2023-11-28T17:56:40.872Z,92.66
2023-11-28T17:59:31.841Z,92.73
2023-11-28T18:02:04.353Z,92.86
2023-11-28T18:04:38.718Z,93.63
2023-11-28T18:07:36.929Z,94.14
2023-11-28T18:10:20.027Z,92.87
2023-11-28T18:13:20.760Z,93.97
2023-11-28T18:16:00.399Z,93.74
2023-11-28T18:18:33.173Z,93.94
2023-11-28T18:21:15.037Z,93.19
2023-11-28T18:23:49.028Z,92.84
2023-11-28T18:26:16.047Z,93.10
2023-11-28T18:28:45.343Z,92.96
2023-11-28T18:31:14.572Z,93.01
2023-11-28T18:33:41.743Z,92.79
2023-11-28T18:36:09.952Z,92.69
2023-11-28T18:38:42.776Z,93.01
2023-11-28T18:41:15.502Z,92.71
2023-11-28T18:43:44.946Z,92.99
2023-11-28T18:46:25.530Z,93.18
2023-11-28T18:48:55.280Z,93.11
2023-11-28T18:51:22.405Z,93.70
2023-11-28T18:53:52.412Z,93.74
2023-11-28T18:56:40.602Z,93.70
2023-11-28T18:59:30.668Z,94.36
2023-11-28T19:02:03.053Z,94.00
2023-11-28T19:04:30.902Z,94.30
2023-11-28T19:07:03.210Z,94.43
2023-11-28T19:09:34.858Z,94.71
2023-11-28T19:12:12.932Z,94.47
2023-11-28T19:14:39.736Z,94.28
2023-11-28T19:17:15.890Z,95.02
2023-11-28T23:23:29.594Z,97.93
2023-11-28T23:49:34.096Z,97.52
2023-11-28T23:52:59.019Z,97.26
